sensor_id;sensor_type;location;lat;lon;timestamp;P1;durP1;ratioP1;P2;durP2;ratioP2
52188;SDS011;38162;45.926;13.608;2022-07-30T00:02:08;10.80;;;3.85;;
52188;SDS011;38162;45.926;13.608;2022-07-30T00:04:34;12.75;;;4.50;;
52188;SDS011;38162;45.926;13.608;2022-07-30T00:07:00;7.93;;;3.80;;
52188;SDS011;38162;45.926;13.608;2022-07-30T00:09:28;5.15;;;3.58;;
52188;SDS011;38162;45.926;13.608;2022-07-30T00:11:53;10.60;;;3.70;;
52188;SDS011;38162;45.926;13.608;2022-07-30T00:14:19;7.55;;;3.60;;
52188;SDS011;38162;45.926;13.608;2022-07-30T00:16:45;9.63;;;3.38;;
52188;SDS011;38162;45.926;13.608;2022-07-30T00:19:10;8.18;;;3.40;;
52188;SDS011;38162;45.926;13.608;2022-07-30T00:21:36;7.28;;;3.20;;
52188;SDS011;38162;45.926;13.608;2022-07-30T00:24:02;7.65;;;3.40;;
52188;SDS011;38162;45.926;13.608;2022-07-30T00:26:28;9.52;;;3.75;;
52188;SDS011;38162;45.926;13.608;2022-07-30T00:28:54;5.60;;;3.03;;
52188;SDS011;38162;45.926;13.608;2022-07-30T00:31:20;4.82;;;3.20;;
52188;SDS011;38162;45.926;13.608;2022-07-30T00:33:46;4.15;;;3.08;;
52188;SDS011;38162;45.926;13.608;2022-07-30T00:36:11;3.05;;;2.70;;
52188;SDS011;38162;45.926;13.608;2022-07-30T00:38:37;4.45;;;3.00;;
52188;SDS011;38162;45.926;13.608;2022-07-30T00:41:02;6.97;;;3.22;;
52188;SDS011;38162;45.926;13.608;2022-07-30T00:43:28;3.80;;;3.00;;
52188;SDS011;38162;45.926;13.608;2022-07-30T00:45:54;5.32;;;3.45;;
52188;SDS011;38162;45.926;13.608;2022-07-30T00:48:19;7.15;;;3.20;;
52188;SDS011;38162;45.926;13.608;2022-07-30T00:50:45;7.80;;;3.95;;
52188;SDS011;38162;45.926;13.608;2022-07-30T00:53:11;7.95;;;4.05;;
52188;SDS011;38162;45.926;13.608;2022-07-30T00:55:37;9.32;;;4.10;;
52188;SDS011;38162;45.926;13.608;2022-07-30T00:58:02;12.10;;;4.55;;
52188;SDS011;38162;45.926;13.608;2022-07-30T01:00:28;6.05;;;4.00;;
52188;SDS011;38162;45.926;13.608;2022-07-30T01:02:54;8.52;;;4.07;;
52188;SDS011;38162;45.926;13.608;2022-07-30T01:05:20;21.83;;;5.72;;
52188;SDS011;38162;45.926;13.608;2022-07-30T01:07:46;10.07;;;4.68;;
52188;SDS011;38162;45.926;13.608;2022-07-30T01:10:13;9.10;;;4.25;;
52188;SDS011;38162;45.926;13.608;2022-07-30T01:12:39;10.90;;;5.25;;
52188;SDS011;38162;45.926;13.608;2022-07-30T01:15:06;9.13;;;4.53;;
52188;SDS011;38162;45.926;13.608;2022-07-30T01:17:34;10.68;;;5.03;;
52188;SDS011;38162;45.926;13.608;2022-07-30T01:20:47;14.80;;;4.63;;
52188;SDS011;38162;45.926;13.608;2022-07-30T01:28:17;7.57;;;4.97;;
52188;SDS011;38162;45.926;13.608;2022-07-30T01:30:46;8.25;;;5.18;;
52188;SDS011;38162;45.926;13.608;2022-07-30T01:33:16;9.63;;;4.50;;
52188;SDS011;38162;45.926;13.608;2022-07-30T01:35:43;6.25;;;4.38;;
52188;SDS011;38162;45.926;13.608;2022-07-30T01:38:11;7.00;;;4.65;;
52188;SDS011;38162;45.926;13.608;2022-07-30T01:40:41;8.07;;;4.95;;
52188;SDS011;38162;45.926;13.608;2022-07-30T01:43:09;8.73;;;4.85;;
52188;SDS011;38162;45.926;13.608;2022-07-30T01:45:36;11.32;;;4.97;;
52188;SDS011;38162;45.926;13.608;2022-07-30T01:48:03;11.90;;;4.97;;
52188;SDS011;38162;45.926;13.608;2022-07-30T01:50:32;8.88;;;5.47;;
52188;SDS011;38162;45.926;13.608;2022-07-30T01:53:00;14.60;;;4.75;;
52188;SDS011;38162;45.926;13.608;2022-07-30T01:55:29;9.75;;;4.57;;
52188;SDS011;38162;45.926;13.608;2022-07-30T01:57:58;8.55;;;4.70;;
52188;SDS011;38162;45.926;13.608;2022-07-30T02:00:25;10.07;;;5.00;;
52188;SDS011;38162;45.926;13.608;2022-07-30T02:02:54;5.55;;;4.53;;
52188;SDS011;38162;45.926;13.608;2022-07-30T02:05:21;14.15;;;4.70;;
52188;SDS011;38162;45.926;13.608;2022-07-30T02:12:57;6.72;;;4.97;;
52188;SDS011;38162;45.926;13.608;2022-07-30T02:15:32;6.18;;;4.60;;
52188;SDS011;38162;45.926;13.608;2022-07-30T02:18:07;8.65;;;4.57;;
52188;SDS011;38162;45.926;13.608;2022-07-30T02:20:42;9.68;;;4.50;;
52188;SDS011;38162;45.926;13.608;2022-07-30T02:23:11;5.47;;;4.10;;
52188;SDS011;38162;45.926;13.608;2022-07-30T02:25:41;6.45;;;4.25;;
52188;SDS011;38162;45.926;13.608;2022-07-30T02:28:11;6.90;;;4.20;;
52188;SDS011;38162;45.926;13.608;2022-07-30T02:30:40;6.05;;;3.63;;
52188;SDS011;38162;45.926;13.608;2022-07-30T02:33:30;4.57;;;3.92;;
52188;SDS011;38162;45.926;13.608;2022-07-30T02:35:59;5.28;;;3.80;;
52188;SDS011;38162;45.926;13.608;2022-07-30T02:38:27;6.65;;;4.13;;
52188;SDS011;38162;45.926;13.608;2022-07-30T02:40:54;5.53;;;4.05;;
52188;SDS011;38162;45.926;13.608;2022-07-30T02:43:23;5.32;;;3.97;;
52188;SDS011;38162;45.926;13.608;2022-07-30T02:45:51;7.82;;;4.18;;
52188;SDS011;38162;45.926;13.608;2022-07-30T02:48:18;5.53;;;4.10;;
52188;SDS011;38162;45.926;13.608;2022-07-30T02:50:47;6.15;;;3.80;;
52188;SDS011;38162;45.926;13.608;2022-07-30T02:53:16;5.43;;;3.60;;
52188;SDS011;38162;45.926;13.608;2022-07-30T02:55:43;5.20;;;3.60;;
52188;SDS011;38162;45.926;13.608;2022-07-30T02:58:11;8.00;;;3.85;;
52188;SDS011;38162;45.926;13.608;2022-07-30T03:00:44;10.77;;;4.10;;
52188;SDS011;38162;45.926;13.608;2022-07-30T03:03:12;7.00;;;4.15;;
52188;SDS011;38162;45.926;13.608;2022-07-30T03:05:40;10.88;;;5.05;;
52188;SDS011;38162;45.926;13.608;2022-07-30T03:08:07;7.85;;;4.57;;
52188;SDS011;38162;45.926;13.608;2022-07-30T03:10:33;13.52;;;4.63;;
52188;SDS011;38162;45.926;13.608;2022-07-30T03:13:01;6.63;;;4.70;;
52188;SDS011;38162;45.926;13.608;2022-07-30T03:15:29;8.43;;;4.40;;
52188;SDS011;38162;45.926;13.608;2022-07-30T03:17:59;8.15;;;4.28;;
52188;SDS011;38162;45.926;13.608;2022-07-30T03:20:27;6.75;;;4.10;;
52188;SDS011;38162;45.926;13.608;2022-07-30T03:22:56;7.60;;;4.20;;
52188;SDS011;38162;45.926;13.608;2022-07-30T03:25:27;5.75;;;4.03;;
52188;SDS011;38162;45.926;13.608;2022-07-30T03:27:55;6.30;;;4.28;;
52188;SDS011;38162;45.926;13.608;2022-07-30T03:30:24;7.38;;;3.75;;
52188;SDS011;38162;45.926;13.608;2022-07-30T03:32:52;8.10;;;4.30;;
52188;SDS011;38162;45.926;13.608;2022-07-30T03:35:19;7.70;;;4.20;;
52188;SDS011;38162;45.926;13.608;2022-07-30T03:37:48;5.90;;;4.47;;
52188;SDS011;38162;45.926;13.608;2022-07-30T03:40:15;6.43;;;4.25;;
52188;SDS011;38162;45.926;13.608;2022-07-30T03:42:42;9.10;;;4.80;;
52188;SDS011;38162;45.926;13.608;2022-07-30T03:45:09;8.98;;;4.97;;
52188;SDS011;38162;45.926;13.608;2022-07-30T03:47:38;9.45;;;5.40;;
52188;SDS011;38162;45.926;13.608;2022-07-30T03:50:06;8.63;;;5.32;;
52188;SDS011;38162;45.926;13.608;2022-07-30T03:52:33;7.55;;;5.43;;
52188;SDS011;38162;45.926;13.608;2022-07-30T03:54:59;11.18;;;5.75;;
52188;SDS011;38162;45.926;13.608;2022-07-30T03:57:26;8.07;;;4.88;;
52188;SDS011;38162;45.926;13.608;2022-07-30T03:59:52;6.35;;;4.80;;
52188;SDS011;38162;45.926;13.608;2022-07-30T04:02:18;10.43;;;4.82;;
52188;SDS011;38162;45.926;13.608;2022-07-30T04:04:44;7.50;;;4.60;;
52188;SDS011;38162;45.926;13.608;2022-07-30T04:07:09;11.15;;;4.40;;
52188;SDS011;38162;45.926;13.608;2022-07-30T04:09:35;7.93;;;4.03;;
52188;SDS011;38162;45.926;13.608;2022-07-30T04:12:01;10.90;;;4.13;;
52188;SDS011;38162;45.926;13.608;2022-07-30T04:14:48;7.97;;;4.03;;
52188;SDS011;38162;45.926;13.608;2022-07-30T04:17:17;6.80;;;3.40;;
52188;SDS011;38162;45.926;13.608;2022-07-30T04:20:09;12.80;;;5.10;;
52188;SDS011;38162;45.926;13.608;2022-07-30T04:22:39;5.60;;;3.78;;
52188;SDS011;38162;45.926;13.608;2022-07-30T04:25:06;8.15;;;3.95;;
52188;SDS011;38162;45.926;13.608;2022-07-30T04:27:33;6.65;;;3.92;;
52188;SDS011;38162;45.926;13.608;2022-07-30T04:30:00;6.30;;;4.10;;
52188;SDS011;38162;45.926;13.608;2022-07-30T04:32:26;10.48;;;4.30;;
52188;SDS011;38162;45.926;13.608;2022-07-30T04:34:53;4.43;;;3.90;;
52188;SDS011;38162;45.926;13.608;2022-07-30T04:37:23;11.60;;;4.78;;
52188;SDS011;38162;45.926;13.608;2022-07-30T04:39:50;4.80;;;4.22;;
52188;SDS011;38162;45.926;13.608;2022-07-30T04:42:22;7.07;;;3.87;;
52188;SDS011;38162;45.926;13.608;2022-07-30T04:44:48;8.90;;;4.50;;
52188;SDS011;38162;45.926;13.608;2022-07-30T04:47:15;4.85;;;4.15;;
52188;SDS011;38162;45.926;13.608;2022-07-30T04:49:41;6.07;;;4.20;;
52188;SDS011;38162;45.926;13.608;2022-07-30T04:52:08;5.43;;;3.60;;
52188;SDS011;38162;45.926;13.608;2022-07-30T04:54:37;5.13;;;3.50;;
52188;SDS011;38162;45.926;13.608;2022-07-30T04:57:06;4.97;;;3.72;;
52188;SDS011;38162;45.926;13.608;2022-07-30T04:59:33;4.72;;;3.47;;
52188;SDS011;38162;45.926;13.608;2022-07-30T05:02:01;6.70;;;3.60;;
52188;SDS011;38162;45.926;13.608;2022-07-30T05:04:28;4.38;;;3.45;;
52188;SDS011;38162;45.926;13.608;2022-07-30T05:06:57;6.07;;;3.60;;
52188;SDS011;38162;45.926;13.608;2022-07-30T05:09:24;5.57;;;3.58;;
52188;SDS011;38162;45.926;13.608;2022-07-30T05:11:51;8.20;;;3.97;;
52188;SDS011;38162;45.926;13.608;2022-07-30T05:14:18;5.22;;;3.60;;
52188;SDS011;38162;45.926;13.608;2022-07-30T05:16:44;3.92;;;3.53;;
52188;SDS011;38162;45.926;13.608;2022-07-30T05:19:10;5.05;;;3.53;;
52188;SDS011;38162;45.926;13.608;2022-07-30T05:21:35;3.90;;;3.30;;
52188;SDS011;38162;45.926;13.608;2022-07-30T05:24:01;4.60;;;3.70;;
52188;SDS011;38162;45.926;13.608;2022-07-30T05:26:27;5.65;;;4.00;;
52188;SDS011;38162;45.926;13.608;2022-07-30T05:28:53;6.72;;;3.67;;
52188;SDS011;38162;45.926;13.608;2022-07-30T05:31:18;6.75;;;4.00;;
52188;SDS011;38162;45.926;13.608;2022-07-30T05:33:44;7.05;;;4.25;;
52188;SDS011;38162;45.926;13.608;2022-07-30T05:36:10;7.70;;;3.67;;
52188;SDS011;38162;45.926;13.608;2022-07-30T05:38:35;5.70;;;3.53;;
52188;SDS011;38162;45.926;13.608;2022-07-30T05:41:01;5.85;;;4.20;;
52188;SDS011;38162;45.926;13.608;2022-07-30T05:43:27;5.00;;;3.33;;
52188;SDS011;38162;45.926;13.608;2022-07-30T05:45:52;5.07;;;3.13;;
52188;SDS011;38162;45.926;13.608;2022-07-30T05:48:18;9.85;;;4.88;;
52188;SDS011;38162;45.926;13.608;2022-07-30T05:50:44;6.43;;;3.95;;
52188;SDS011;38162;45.926;13.608;2022-07-30T05:53:10;7.40;;;4.53;;
52188;SDS011;38162;45.926;13.608;2022-07-30T05:55:35;7.43;;;4.10;;
52188;SDS011;38162;45.926;13.608;2022-07-30T05:58:01;6.18;;;4.07;;
52188;SDS011;38162;45.926;13.608;2022-07-30T06:00:27;6.90;;;4.10;;
52188;SDS011;38162;45.926;13.608;2022-07-30T06:02:53;5.20;;;4.10;;
52188;SDS011;38162;45.926;13.608;2022-07-30T06:05:18;6.80;;;3.90;;
52188;SDS011;38162;45.926;13.608;2022-07-30T06:07:44;7.28;;;4.25;;
52188;SDS011;38162;45.926;13.608;2022-07-30T06:10:10;8.40;;;4.05;;
52188;SDS011;38162;45.926;13.608;2022-07-30T06:12:35;6.82;;;4.35;;
52188;SDS011;38162;45.926;13.608;2022-07-30T06:15:01;12.60;;;4.70;;
52188;SDS011;38162;45.926;13.608;2022-07-30T06:17:27;6.40;;;4.03;;
52188;SDS011;38162;45.926;13.608;2022-07-30T06:19:53;5.88;;;4.10;;
52188;SDS011;38162;45.926;13.608;2022-07-30T06:22:19;7.65;;;4.38;;
52188;SDS011;38162;45.926;13.608;2022-07-30T06:24:45;11.07;;;4.78;;
52188;SDS011;38162;45.926;13.608;2022-07-30T06:27:10;6.05;;;4.50;;
52188;SDS011;38162;45.926;13.608;2022-07-30T06:29:36;6.03;;;4.50;;
52188;SDS011;38162;45.926;13.608;2022-07-30T06:32:02;7.15;;;4.60;;
52188;SDS011;38162;45.926;13.608;2022-07-30T06:34:28;9.73;;;4.30;;
52188;SDS011;38162;45.926;13.608;2022-07-30T06:36:54;6.32;;;4.80;;
52188;SDS011;38162;45.926;13.608;2022-07-30T06:39:20;5.20;;;4.20;;
52188;SDS011;38162;45.926;13.608;2022-07-30T06:41:46;8.02;;;5.13;;
52188;SDS011;38162;45.926;13.608;2022-07-30T06:44:11;7.85;;;4.65;;
52188;SDS011;38162;45.926;13.608;2022-07-30T06:46:37;8.32;;;4.57;;
52188;SDS011;38162;45.926;13.608;2022-07-30T06:49:02;9.80;;;4.38;;
52188;SDS011;38162;45.926;13.608;2022-07-30T06:51:28;10.23;;;4.88;;
52188;SDS011;38162;45.926;13.608;2022-07-30T06:53:54;8.30;;;5.50;;
52188;SDS011;38162;45.926;13.608;2022-07-30T06:56:19;10.93;;;4.13;;
52188;SDS011;38162;45.926;13.608;2022-07-30T06:58:45;11.85;;;4.32;;
52188;SDS011;38162;45.926;13.608;2022-07-30T07:01:11;7.85;;;4.47;;
52188;SDS011;38162;45.926;13.608;2022-07-30T07:03:36;7.38;;;4.20;;
52188;SDS011;38162;45.926;13.608;2022-07-30T07:06:02;7.60;;;3.90;;
52188;SDS011;38162;45.926;13.608;2022-07-30T07:08:29;5.50;;;3.50;;
52188;SDS011;38162;45.926;13.608;2022-07-30T07:10:55;4.32;;;3.35;;
52188;SDS011;38162;45.926;13.608;2022-07-30T07:13:21;8.45;;;3.90;;
52188;SDS011;38162;45.926;13.608;2022-07-30T07:15:47;10.57;;;4.43;;
52188;SDS011;38162;45.926;13.608;2022-07-30T07:18:13;11.85;;;4.70;;
52188;SDS011;38162;45.926;13.608;2022-07-30T07:20:39;11.00;;;5.10;;
52188;SDS011;38162;45.926;13.608;2022-07-30T07:23:07;5.40;;;4.90;;
52188;SDS011;38162;45.926;13.608;2022-07-30T07:25:33;5.47;;;4.68;;
52188;SDS011;38162;45.926;13.608;2022-07-30T07:27:59;11.35;;;5.15;;
52188;SDS011;38162;45.926;13.608;2022-07-30T07:30:24;10.60;;;5.43;;
52188;SDS011;38162;45.926;13.608;2022-07-30T07:32:50;7.95;;;5.18;;
52188;SDS011;38162;45.926;13.608;2022-07-30T07:35:16;9.35;;;5.93;;
52188;SDS011;38162;45.926;13.608;2022-07-30T07:37:41;8.38;;;6.00;;
52188;SDS011;38162;45.926;13.608;2022-07-30T07:40:07;9.65;;;4.80;;
52188;SDS011;38162;45.926;13.608;2022-07-30T07:42:33;6.93;;;5.68;;
52188;SDS011;38162;45.926;13.608;2022-07-30T07:44:59;8.27;;;5.55;;
52188;SDS011;38162;45.926;13.608;2022-07-30T07:47:24;10.85;;;5.90;;
52188;SDS011;38162;45.926;13.608;2022-07-30T07:49:53;12.18;;;5.50;;
52188;SDS011;38162;45.926;13.608;2022-07-30T07:52:19;6.30;;;5.03;;
52188;SDS011;38162;45.926;13.608;2022-07-30T07:54:45;7.88;;;4.80;;
52188;SDS011;38162;45.926;13.608;2022-07-30T07:57:10;10.55;;;5.13;;
52188;SDS011;38162;45.926;13.608;2022-07-30T07:59:36;6.20;;;4.85;;
52188;SDS011;38162;45.926;13.608;2022-07-30T08:02:02;8.70;;;4.93;;
52188;SDS011;38162;45.926;13.608;2022-07-30T08:04:28;6.28;;;4.68;;
52188;SDS011;38162;45.926;13.608;2022-07-30T08:06:54;5.18;;;3.88;;
52188;SDS011;38162;45.926;13.608;2022-07-30T08:09:20;8.77;;;4.40;;
52188;SDS011;38162;45.926;13.608;2022-07-30T08:11:45;9.23;;;4.53;;
52188;SDS011;38162;45.926;13.608;2022-07-30T08:14:12;6.70;;;4.25;;
52188;SDS011;38162;45.926;13.608;2022-07-30T08:16:38;5.90;;;4.25;;
52188;SDS011;38162;45.926;13.608;2022-07-30T08:19:04;5.28;;;4.18;;
52188;SDS011;38162;45.926;13.608;2022-07-30T08:21:29;6.88;;;4.03;;
52188;SDS011;38162;45.926;13.608;2022-07-30T08:23:55;7.45;;;3.75;;
52188;SDS011;38162;45.926;13.608;2022-07-30T08:26:21;6.65;;;4.30;;
52188;SDS011;38162;45.926;13.608;2022-07-30T08:28:46;6.35;;;3.70;;
52188;SDS011;38162;45.926;13.608;2022-07-30T08:31:12;5.20;;;3.80;;
52188;SDS011;38162;45.926;13.608;2022-07-30T08:33:38;5.32;;;3.67;;
52188;SDS011;38162;45.926;13.608;2022-07-30T08:36:04;6.05;;;3.60;;
52188;SDS011;38162;45.926;13.608;2022-07-30T08:38:30;5.85;;;4.10;;
52188;SDS011;38162;45.926;13.608;2022-07-30T08:40:55;5.50;;;3.50;;
52188;SDS011;38162;45.926;13.608;2022-07-30T08:43:23;6.45;;;3.70;;
52188;SDS011;38162;45.926;13.608;2022-07-30T08:45:50;6.45;;;3.58;;
52188;SDS011;38162;45.926;13.608;2022-07-30T08:48:17;4.40;;;2.90;;
52188;SDS011;38162;45.926;13.608;2022-07-30T08:50:46;4.78;;;3.10;;
52188;SDS011;38162;45.926;13.608;2022-07-30T08:53:12;8.77;;;3.60;;
52188;SDS011;38162;45.926;13.608;2022-07-30T08:55:39;5.13;;;2.80;;
52188;SDS011;38162;45.926;13.608;2022-07-30T08:58:09;3.63;;;2.67;;
52188;SDS011;38162;45.926;13.608;2022-07-30T09:00:56;3.85;;;2.70;;
52188;SDS011;38162;45.926;13.608;2022-07-30T09:03:22;7.15;;;2.70;;
52188;SDS011;38162;45.926;13.608;2022-07-30T09:05:48;4.45;;;2.97;;
52188;SDS011;38162;45.926;13.608;2022-07-30T09:08:13;3.10;;;2.80;;
52188;SDS011;38162;45.926;13.608;2022-07-30T09:10:39;2.92;;;2.50;;
52188;SDS011;38162;45.926;13.608;2022-07-30T09:13:21;4.55;;;2.63;;
52188;SDS011;38162;45.926;13.608;2022-07-30T09:15:48;3.05;;;2.22;;
52188;SDS011;38162;45.926;13.608;2022-07-30T09:18:13;4.82;;;2.40;;
52188;SDS011;38162;45.926;13.608;2022-07-30T09:21:01;5.68;;;2.50;;
52188;SDS011;38162;45.926;13.608;2022-07-30T09:23:56;3.97;;;2.40;;
52188;SDS011;38162;45.926;13.608;2022-07-30T09:26:23;4.20;;;2.17;;
52188;SDS011;38162;45.926;13.608;2022-07-30T09:28:49;2.33;;;2.13;;
52188;SDS011;38162;45.926;13.608;2022-07-30T09:31:16;3.08;;;2.40;;
52188;SDS011;38162;45.926;13.608;2022-07-30T09:33:43;3.00;;;2.03;;
52188;SDS011;38162;45.926;13.608;2022-07-30T09:36:12;3.38;;;2.58;;
52188;SDS011;38162;45.926;13.608;2022-07-30T09:41:06;3.75;;;2.60;;
52188;SDS011;38162;45.926;13.608;2022-07-30T09:43:32;3.67;;;2.78;;
52188;SDS011;38162;45.926;13.608;2022-07-30T09:46:06;9.13;;;2.80;;
52188;SDS011;38162;45.926;13.608;2022-07-30T09:48:32;4.68;;;2.90;;
52188;SDS011;38162;45.926;13.608;2022-07-30T09:50:58;7.47;;;2.75;;
52188;SDS011;38162;45.926;13.608;2022-07-30T09:53:23;4.20;;;2.67;;
52188;SDS011;38162;45.926;13.608;2022-07-30T09:55:50;5.13;;;2.75;;
52188;SDS011;38162;45.926;13.608;2022-07-30T09:58:16;4.20;;;2.75;;
52188;SDS011;38162;45.926;13.608;2022-07-30T10:00:41;4.30;;;2.60;;
52188;SDS011;38162;45.926;13.608;2022-07-30T10:03:18;3.55;;;2.45;;
52188;SDS011;38162;45.926;13.608;2022-07-30T10:05:52;4.07;;;2.40;;
52188;SDS011;38162;45.926;13.608;2022-07-30T10:08:20;5.38;;;3.00;;
52188;SDS011;38162;45.926;13.608;2022-07-30T10:13:27;4.80;;;2.85;;
52188;SDS011;38162;45.926;13.608;2022-07-30T10:15:53;3.92;;;3.10;;
52188;SDS011;38162;45.926;13.608;2022-07-30T10:18:19;4.80;;;3.17;;
52188;SDS011;38162;45.926;13.608;2022-07-30T10:20:45;4.40;;;2.75;;
52188;SDS011;38162;45.926;13.608;2022-07-30T10:23:12;3.10;;;2.55;;
52188;SDS011;38162;45.926;13.608;2022-07-30T10:25:38;5.85;;;3.13;;
52188;SDS011;38162;45.926;13.608;2022-07-30T10:28:04;2.80;;;2.03;;
52188;SDS011;38162;45.926;13.608;2022-07-30T10:30:31;4.90;;;3.00;;
52188;SDS011;38162;45.926;13.608;2022-07-30T10:32:58;4.40;;;2.88;;
52188;SDS011;38162;45.926;13.608;2022-07-30T10:35:25;8.35;;;2.83;;
52188;SDS011;38162;45.926;13.608;2022-07-30T10:37:51;4.78;;;2.50;;
52188;SDS011;38162;45.926;13.608;2022-07-30T10:40:22;5.30;;;2.45;;
52188;SDS011;38162;45.926;13.608;2022-07-30T10:45:54;6.38;;;2.08;;
52188;SDS011;38162;45.926;13.608;2022-07-30T10:48:31;3.72;;;2.13;;
52188;SDS011;38162;45.926;13.608;2022-07-30T10:50:58;2.90;;;2.22;;
52188;SDS011;38162;45.926;13.608;2022-07-30T10:53:33;3.63;;;2.35;;
52188;SDS011;38162;45.926;13.608;2022-07-30T10:56:16;3.03;;;1.98;;
52188;SDS011;38162;45.926;13.608;2022-07-30T11:01:21;4.25;;;2.20;;
52188;SDS011;38162;45.926;13.608;2022-07-30T11:06:49;4.07;;;2.00;;
52188;SDS011;38162;45.926;13.608;2022-07-30T11:12:05;1.75;;;1.55;;
52188;SDS011;38162;45.926;13.608;2022-07-30T11:17:10;3.20;;;1.95;;
52188;SDS011;38162;45.926;13.608;2022-07-30T11:22:36;2.00;;;1.63;;
52188;SDS011;38162;45.926;13.608;2022-07-30T11:25:10;3.53;;;1.58;;
52188;SDS011;38162;45.926;13.608;2022-07-30T11:27:54;1.50;;;1.40;;
52188;SDS011;38162;45.926;13.608;2022-07-30T11:32:50;2.25;;;1.58;;
52188;SDS011;38162;45.926;13.608;2022-07-30T11:40:28;4.13;;;1.48;;
52188;SDS011;38162;45.926;13.608;2022-07-30T11:43:27;2.53;;;1.42;;
52188;SDS011;38162;45.926;13.608;2022-07-30T11:46:18;4.43;;;1.50;;
52188;SDS011;38162;45.926;13.608;2022-07-30T11:48:57;1.27;;;1.10;;
52188;SDS011;38162;45.926;13.608;2022-07-30T11:51:39;1.65;;;1.20;;
52188;SDS011;38162;45.926;13.608;2022-07-30T11:54:10;3.50;;;1.25;;
52188;SDS011;38162;45.926;13.608;2022-07-30T11:56:36;2.08;;;1.33;;
52188;SDS011;38162;45.926;13.608;2022-07-30T11:59:24;1.98;;;1.20;;
52188;SDS011;38162;45.926;13.608;2022-07-30T12:01:50;1.75;;;1.15;;
52188;SDS011;38162;45.926;13.608;2022-07-30T12:04:18;3.75;;;1.10;;
52188;SDS011;38162;45.926;13.608;2022-07-30T12:06:44;2.55;;;1.30;;
52188;SDS011;38162;45.926;13.608;2022-07-30T12:09:12;2.83;;;1.33;;
52188;SDS011;38162;45.926;13.608;2022-07-30T12:11:46;2.25;;;1.35;;
52188;SDS011;38162;45.926;13.608;2022-07-30T12:14:11;1.77;;;1.50;;
52188;SDS011;38162;45.926;13.608;2022-07-30T12:16:38;2.15;;;1.40;;
52188;SDS011;38162;45.926;13.608;2022-07-30T12:19:06;1.75;;;1.20;;
52188;SDS011;38162;45.926;13.608;2022-07-30T12:21:32;3.65;;;1.63;;
52188;SDS011;38162;45.926;13.608;2022-07-30T12:26:26;0.90;;;0.82;;
52188;SDS011;38162;45.926;13.608;2022-07-30T12:28:54;1.42;;;1.20;;
52188;SDS011;38162;45.926;13.608;2022-07-30T12:31:21;1.38;;;0.98;;
52188;SDS011;38162;45.926;13.608;2022-07-30T12:33:47;2.47;;;1.35;;
52188;SDS011;38162;45.926;13.608;2022-07-30T12:36:23;2.47;;;1.20;;
52188;SDS011;38162;45.926;13.608;2022-07-30T12:38:53;1.65;;;1.00;;
52188;SDS011;38162;45.926;13.608;2022-07-30T12:41:21;2.72;;;0.70;;
52188;SDS011;38162;45.926;13.608;2022-07-30T12:43:49;2.33;;;1.10;;
52188;SDS011;38162;45.926;13.608;2022-07-30T12:46:17;3.83;;;1.10;;
52188;SDS011;38162;45.926;13.608;2022-07-30T12:48:47;1.58;;;1.00;;
52188;SDS011;38162;45.926;13.608;2022-07-30T12:51:28;2.33;;;1.67;;
52188;SDS011;38162;45.926;13.608;2022-07-30T12:53:56;5.47;;;1.13;;
52188;SDS011;38162;45.926;13.608;2022-07-30T12:56:26;2.25;;;1.30;;
52188;SDS011;38162;45.926;13.608;2022-07-30T12:58:54;3.35;;;1.30;;
52188;SDS011;38162;45.926;13.608;2022-07-30T13:04:07;3.83;;;2.00;;
52188;SDS011;38162;45.926;13.608;2022-07-30T13:06:33;3.55;;;1.70;;
52188;SDS011;38162;45.926;13.608;2022-07-30T13:08:59;2.47;;;1.77;;
52188;SDS011;38162;45.926;13.608;2022-07-30T13:11:47;2.88;;;1.67;;
52188;SDS011;38162;45.926;13.608;2022-07-30T13:14:12;2.92;;;1.75;;
52188;SDS011;38162;45.926;13.608;2022-07-30T13:16:40;2.03;;;1.60;;
52188;SDS011;38162;45.926;13.608;2022-07-30T13:19:07;4.82;;;1.90;;
52188;SDS011;38162;45.926;13.608;2022-07-30T13:21:35;2.90;;;1.77;;
52188;SDS011;38162;45.926;13.608;2022-07-30T13:24:01;2.67;;;1.50;;
52188;SDS011;38162;45.926;13.608;2022-07-30T13:26:28;2.65;;;1.88;;
52188;SDS011;38162;45.926;13.608;2022-07-30T13:28:54;2.10;;;1.50;;
52188;SDS011;38162;45.926;13.608;2022-07-30T13:31:20;2.40;;;1.40;;
52188;SDS011;38162;45.926;13.608;2022-07-30T13:33:47;2.55;;;1.60;;
52188;SDS011;38162;45.926;13.608;2022-07-30T13:36:14;1.70;;;1.45;;
52188;SDS011;38162;45.926;13.608;2022-07-30T13:38:40;7.05;;;1.60;;
52188;SDS011;38162;45.926;13.608;2022-07-30T13:41:05;2.10;;;1.50;;
52188;SDS011;38162;45.926;13.608;2022-07-30T13:43:32;5.10;;;1.70;;
52188;SDS011;38162;45.926;13.608;2022-07-30T13:45:58;2.75;;;1.38;;
52188;SDS011;38162;45.926;13.608;2022-07-30T13:48:24;3.00;;;1.35;;
52188;SDS011;38162;45.926;13.608;2022-07-30T13:50:50;4.75;;;1.20;;
52188;SDS011;38162;45.926;13.608;2022-07-30T13:53:15;1.77;;;1.20;;
52188;SDS011;38162;45.926;13.608;2022-07-30T13:55:41;1.80;;;1.40;;
52188;SDS011;38162;45.926;13.608;2022-07-30T13:58:07;3.20;;;1.38;;
52188;SDS011;38162;45.926;13.608;2022-07-30T14:00:34;3.92;;;1.67;;
52188;SDS011;38162;45.926;13.608;2022-07-30T14:03:02;2.33;;;1.50;;
52188;SDS011;38162;45.926;13.608;2022-07-30T14:05:29;4.72;;;1.52;;
52188;SDS011;38162;45.926;13.608;2022-07-30T14:07:55;3.75;;;1.38;;
52188;SDS011;38162;45.926;13.608;2022-07-30T14:10:21;1.98;;;1.30;;
52188;SDS011;38162;45.926;13.608;2022-07-30T14:12:48;2.15;;;1.40;;
52188;SDS011;38162;45.926;13.608;2022-07-30T14:15:14;1.48;;;1.10;;
52188;SDS011;38162;45.926;13.608;2022-07-30T14:17:40;2.10;;;1.20;;
52188;SDS011;38162;45.926;13.608;2022-07-30T14:20:06;2.33;;;1.10;;
52188;SDS011;38162;45.926;13.608;2022-07-30T14:22:32;2.80;;;1.30;;
52188;SDS011;38162;45.926;13.608;2022-07-30T14:24:58;1.90;;;1.30;;
52188;SDS011;38162;45.926;13.608;2022-07-30T14:27:26;6.03;;;1.10;;
52188;SDS011;38162;45.926;13.608;2022-07-30T14:29:52;2.70;;;1.20;;
52188;SDS011;38162;45.926;13.608;2022-07-30T14:32:18;2.17;;;1.40;;
52188;SDS011;38162;45.926;13.608;2022-07-30T14:34:43;4.95;;;1.38;;
52188;SDS011;38162;45.926;13.608;2022-07-30T14:37:09;1.90;;;1.20;;
52188;SDS011;38162;45.926;13.608;2022-07-30T14:39:35;2.47;;;1.17;;
52188;SDS011;38162;45.926;13.608;2022-07-30T14:42:01;1.83;;;1.25;;
52188;SDS011;38162;45.926;13.608;2022-07-30T14:44:26;2.15;;;1.05;;
52188;SDS011;38162;45.926;13.608;2022-07-30T14:46:52;1.92;;;1.02;;
52188;SDS011;38162;45.926;13.608;2022-07-30T14:49:18;2.85;;;1.08;;
52188;SDS011;38162;45.926;13.608;2022-07-30T14:51:44;9.07;;;1.90;;
52188;SDS011;38162;45.926;13.608;2022-07-30T14:54:10;2.65;;;1.10;;
52188;SDS011;38162;45.926;13.608;2022-07-30T14:56:36;1.92;;;1.60;;
52188;SDS011;38162;45.926;13.608;2022-07-30T14:59:03;5.57;;;1.42;;
52188;SDS011;38162;45.926;13.608;2022-07-30T15:01:29;1.90;;;1.40;;
52188;SDS011;38162;45.926;13.608;2022-07-30T15:03:55;1.77;;;1.20;;
52188;SDS011;38162;45.926;13.608;2022-07-30T15:06:21;5.43;;;1.60;;
52188;SDS011;38162;45.926;13.608;2022-07-30T15:08:47;4.28;;;1.55;;
52188;SDS011;38162;45.926;13.608;2022-07-30T15:11:13;1.65;;;1.42;;
52188;SDS011;38162;45.926;13.608;2022-07-30T15:13:39;4.13;;;1.35;;
52188;SDS011;38162;45.926;13.608;2022-07-30T15:16:04;2.85;;;1.10;;
52188;SDS011;38162;45.926;13.608;2022-07-30T15:18:31;3.13;;;1.45;;
52188;SDS011;38162;45.926;13.608;2022-07-30T15:20:57;1.85;;;1.17;;
52188;SDS011;38162;45.926;13.608;2022-07-30T15:23:23;2.03;;;1.30;;